createdAt,value
2023-03-23T15:58:23.942Z,3.95
2023-03-23T16:00:54.134Z,3.90
2023-03-23T16:03:25.157Z,4.00
2023-03-23T16:05:53.121Z,3.90
2023-03-23T16:08:21.071Z,4.00
2023-03-23T16:10:49.343Z,4.30
2023-03-23T16:13:18.325Z,3.80
2023-03-23T16:15:46.381Z,3.85
2023-03-23T16:18:19.254Z,4.00
2023-03-23T16:20:48.033Z,4.18
2023-03-23T16:23:16.085Z,3.45
2023-03-23T16:25:44.176Z,3.63
2023-03-23T16:28:12.992Z,3.67
2023-03-23T16:30:41.282Z,3.70
2023-03-23T16:33:09.466Z,3.58
2023-03-23T16:35:38.797Z,3.47
2023-03-23T16:38:07.046Z,3.63
2023-03-23T16:40:36.898Z,3.78
2023-03-23T16:43:09.070Z,3.72
2023-03-23T16:45:37.906Z,3.45
2023-03-23T16:48:06.154Z,3.80
2023-03-23T16:50:34.484Z,3.63
2023-03-23T16:53:03.909Z,3.33
2023-03-23T16:55:31.923Z,3.80
2023-03-23T16:58:12.844Z,3.33
2023-03-23T17:00:45.196Z,3.55
2023-03-23T17:03:13.303Z,3.78
2023-03-23T17:05:41.542Z,3.58
2023-03-23T17:08:10.797Z,3.60
2023-03-23T17:10:39.608Z,3.58
2023-03-23T17:13:07.665Z,3.38
2023-03-23T17:15:37.830Z,3.78
2023-03-23T17:18:06.372Z,3.67
2023-03-23T17:20:34.560Z,3.75
2023-03-23T17:23:02.510Z,3.60
2023-03-23T17:25:31.951Z,2.95
2023-03-23T17:28:05.783Z,3.50
2023-03-23T17:30:34.261Z,3.08
2023-03-23T17:33:02.208Z,2.90
2023-03-23T17:35:30.124Z,3.10
2023-03-23T17:37:58.135Z,2.95
2023-03-23T17:40:26.068Z,2.95
2023-03-23T17:42:55.505Z,2.90
2023-03-23T17:45:23.428Z,3.08
2023-03-23T17:47:51.379Z,2.90
2023-03-23T17:50:19.491Z,2.80
2023-03-23T17:52:47.385Z,2.97
2023-03-23T17:55:15.406Z,3.00
2023-03-23T17:57:44.831Z,2.80
2023-03-23T18:00:16.412Z,3.08
2023-03-23T18:02:44.456Z,2.70
2023-03-23T18:05:12.738Z,2.80
2023-03-23T18:07:40.979Z,2.70
2023-03-23T18:10:12.701Z,2.85
2023-03-23T18:12:41.441Z,2.70
2023-03-23T18:15:10.065Z,2.75
2023-03-23T18:17:39.312Z,2.90
2023-03-23T18:20:08.637Z,2.47
2023-03-23T18:22:36.599Z,3.20
2023-03-23T18:25:05.208Z,2.80
2023-03-23T18:27:33.184Z,2.65
2023-03-23T18:30:01.204Z,2.70
2023-03-23T18:32:29.160Z,2.55
2023-03-23T18:34:58.603Z,2.78
2023-03-23T18:37:26.628Z,2.75
2023-03-23T18:39:54.834Z,2.50
2023-03-23T18:42:22.783Z,2.90
2023-03-23T18:44:50.854Z,2.83
2023-03-23T18:47:18.947Z,2.40
2023-03-23T18:49:51.081Z,2.80
2023-03-23T18:52:20.404Z,2.75
2023-03-23T18:54:48.334Z,2.75
2023-03-23T18:57:17.938Z,2.50
2023-03-23T18:59:45.905Z,2.80
2023-03-23T19:02:13.922Z,2.80
2023-03-23T19:04:41.935Z,2.55
2023-03-23T19:07:09.899Z,2.70
2023-03-23T19:09:39.198Z,2.20
2023-03-23T19:12:09.234Z,2.50
2023-03-23T19:14:37.420Z,2.40
2023-03-23T19:17:05.841Z,2.50
2023-03-23T19:19:34.221Z,2.40
2023-03-23T19:22:03.407Z,2.20
2023-03-23T19:24:31.415Z,2.50
2023-03-23T19:27:02.220Z,2.33
2023-03-23T19:29:30.435Z,2.50
2023-03-23T19:31:58.703Z,2.20
2023-03-23T19:34:27.367Z,2.38
2023-03-23T19:37:03.282Z,2.45
2023-03-23T19:39:34.014Z,2.22
2023-03-23T19:42:04.405Z,2.67
2023-03-23T19:44:32.868Z,2.40
2023-03-23T19:47:01.156Z,2.25
2023-03-23T19:49:29.281Z,2.55
2023-03-23T19:52:08.986Z,2.10
2023-03-23T19:54:38.539Z,2.40
2023-03-23T19:57:08.759Z,2.38
2023-03-23T19:59:36.960Z,2.22
2023-03-23T20:02:04.945Z,2.40
2023-03-23T20:04:32.950Z,2.20
2023-03-23T20:07:00.874Z,2.25
2023-03-23T20:09:30.686Z,2.30
2023-03-23T20:11:59.258Z,2.83
2023-03-23T20:14:28.637Z,2.22
2023-03-23T20:16:56.843Z,2.20
2023-03-23T20:19:24.841Z,2.17
2023-03-23T20:21:52.854Z,2.13
2023-03-23T20:24:21.108Z,2.40
2023-03-23T20:26:49.095Z,2.35
2023-03-23T20:29:16.990Z,2.40
2023-03-23T20:31:47.142Z,2.10
2023-03-23T20:34:17.124Z,2.05
2023-03-23T20:36:46.002Z,2.47
2023-03-23T20:39:15.070Z,2.33
2023-03-23T20:41:43.684Z,2.28
2023-03-23T20:44:14.274Z,2.17
2023-03-23T20:46:42.482Z,2.22
2023-03-23T20:49:11.789Z,2.00
2023-03-23T20:51:40.023Z,2.30
2023-03-23T20:54:08.005Z,2.33
2023-03-23T20:56:35.972Z,2.03
2023-03-23T20:59:03.978Z,2.20
2023-03-23T21:01:33.271Z,2.17
2023-03-23T21:04:03.028Z,2.25
2023-03-23T21:06:33.434Z,2.10
2023-03-23T21:09:01.345Z,2.00
2023-03-23T21:11:30.099Z,2.13
2023-03-23T21:13:57.993Z,2.20
2023-03-23T21:16:27.156Z,2.22
2023-03-23T21:18:55.243Z,2.30
2023-03-23T21:21:23.435Z,1.98
2023-03-23T21:23:53.167Z,2.10
2023-03-23T21:26:23.238Z,2.28
2023-03-23T21:28:54.064Z,2.10
2023-03-23T21:31:23.387Z,2.03
2023-03-23T21:33:51.363Z,2.00
2023-03-23T21:36:19.231Z,2.50
2023-03-23T21:38:50.166Z,2.30
2023-03-23T21:41:19.486Z,2.05
2023-03-23T21:43:47.401Z,2.00
2023-03-23T21:46:17.987Z,2.58
2023-03-23T21:48:50.763Z,2.40
2023-03-23T21:51:20.812Z,2.30
2023-03-23T21:53:48.768Z,2.75
2023-03-23T21:56:16.654Z,2.65
2023-03-23T21:58:46.304Z,2.95
2023-03-23T22:01:14.332Z,2.70
2023-03-23T22:03:42.344Z,3.00
2023-03-23T22:06:12.871Z,2.58
2023-03-23T22:08:41.889Z,2.60
2023-03-23T22:11:12.529Z,2.75
2023-03-23T22:13:40.692Z,2.70
2023-03-23T22:16:11.215Z,2.63
2023-03-23T22:18:39.207Z,2.55
2023-03-23T22:21:07.392Z,2.72
2023-03-23T22:23:35.641Z,2.42
2023-03-23T22:26:03.798Z,2.38
2023-03-23T22:28:31.941Z,2.60
2023-03-23T22:31:01.105Z,2.58
2023-03-23T22:33:30.408Z,2.70
2023-03-23T22:35:58.576Z,2.33
2023-03-23T22:38:26.692Z,2.22
2023-03-23T22:40:57.756Z,2.30
2023-03-23T22:43:26.955Z,2.30
2023-03-23T22:45:55.035Z,2.53
2023-03-23T22:48:25.583Z,2.78
2023-03-23T22:50:55.171Z,2.38
2023-03-23T22:53:23.185Z,2.55
2023-03-23T22:55:52.012Z,2.40
2023-03-23T22:58:20.138Z,2.63
2023-03-23T23:00:49.491Z,2.45
2023-03-23T23:03:17.459Z,2.58
2023-03-23T23:05:46.483Z,2.20
2023-03-23T23:08:17.762Z,2.65
2023-03-23T23:10:47.648Z,2.30
2023-03-23T23:13:15.719Z,2.42
2023-03-23T23:15:45.676Z,2.30
2023-03-23T23:18:13.920Z,2.35
2023-03-23T23:20:42.196Z,2.38
2023-03-23T23:23:10.273Z,2.50
2023-03-23T23:25:39.554Z,2.30
2023-03-23T23:28:07.988Z,2.42
2023-03-23T23:30:36.228Z,2.53
2023-03-23T23:33:05.146Z,2.35
2023-03-23T23:35:34.708Z,2.50
2023-03-23T23:38:03.545Z,2.10
2023-03-23T23:40:32.885Z,2.10
2023-03-23T23:43:03.566Z,2.22
2023-03-23T23:45:31.591Z,2.22
2023-03-23T23:47:59.660Z,2.47
2023-03-23T23:50:27.720Z,2.13
2023-03-23T23:52:56.036Z,2.13
2023-03-23T23:55:23.929Z,2.40
2023-03-23T23:57:51.976Z,2.40
